Aviation Digital Data Service (ADDS)

Output produced by METARs form (2108 UTC 25 February 2018)
found at http://aviationweather.gov/adds/metars/
 
KLNS 252053Z 12003KT 10SM OVC008 09/07 A2995 RMK AO2 SLP144 T00890072 53003
KLNS 252105Z 2521/2618 VRB03KT P6SM BKN008 OVC090 
     FM252300 25008KT P6SM SCT020 BKN090 
     FM260200 30005KT P6SM SCT200